createdAt,value
2023-02-11T00:00:42.344Z,80.89
2023-02-11T00:03:09.093Z,81.21
2023-02-11T00:05:35.597Z,81.42
2023-02-11T00:08:02.062Z,81.75
2023-02-11T00:10:28.505Z,81.79
2023-02-11T00:12:54.915Z,81.96
2023-02-11T00:15:21.447Z,81.45
2023-02-11T00:17:47.868Z,81.98
2023-02-11T00:20:14.402Z,81.87
2023-02-11T00:22:40.826Z,82.13
2023-02-11T00:25:07.374Z,82.55
2023-02-11T00:27:33.803Z,82.61
2023-02-11T00:30:02.399Z,82.86
2023-02-11T00:32:28.813Z,82.82
2023-02-11T00:34:55.466Z,82.63
2023-02-11T00:37:22.376Z,82.52
2023-02-11T00:39:50.194Z,83.28
2023-02-11T00:42:16.945Z,83.81
2023-02-11T00:44:43.333Z,83.16
2023-02-11T00:47:09.749Z,83.25
2023-02-11T00:49:36.934Z,83.16
2023-02-11T00:52:03.499Z,83.46
2023-02-11T00:54:30.115Z,83.66
2023-02-11T00:56:56.527Z,83.79
2023-02-11T00:59:22.995Z,83.63
2023-02-11T01:01:49.467Z,83.92
2023-02-11T01:04:15.927Z,84.06
2023-02-11T01:06:42.344Z,84.59
2023-02-11T01:09:08.756Z,84.50
2023-02-11T01:11:35.430Z,84.79
2023-02-11T01:14:01.877Z,84.71
2023-02-11T01:16:28.366Z,84.65
2023-02-11T01:18:54.818Z,85.41
2023-02-11T01:21:21.250Z,85.06
2023-02-11T01:23:47.705Z,84.94
2023-02-11T01:26:14.108Z,84.90
2023-02-11T01:28:40.570Z,85.00
2023-02-11T01:31:07.189Z,85.84
2023-02-11T01:33:33.835Z,85.08
2023-02-11T01:36:02.716Z,85.12
2023-02-11T01:38:29.175Z,85.73
2023-02-11T01:41:00.972Z,86.03
2023-02-11T01:43:33.230Z,86.60
2023-02-11T01:46:07.300Z,87.21
2023-02-11T01:48:39.413Z,86.77
2023-02-11T01:51:27.192Z,86.78
2023-02-11T01:54:12.804Z,86.84
2023-02-11T01:57:01.562Z,86.84
2023-02-11T01:59:30.894Z,87.54
2023-02-11T02:02:00.736Z,87.03
2023-02-11T02:04:31.576Z,86.98
2023-02-11T02:07:10.612Z,86.41
2023-02-11T02:09:41.530Z,86.71
2023-02-11T02:12:08.015Z,86.99
2023-02-11T02:14:38.471Z,86.90
2023-02-11T02:17:04.919Z,86.88
2023-02-11T02:19:43.847Z,86.87
2023-02-11T02:22:45.974Z,86.57
2023-02-11T02:25:27.596Z,86.54
2023-02-11T02:28:03.238Z,87.16
2023-02-11T02:31:00.364Z,86.91
2023-02-11T02:33:37.827Z,86.86
2023-02-11T02:36:20.888Z,87.31
2023-02-11T02:38:56.148Z,87.02
2023-02-11T02:41:27.477Z,86.87
2023-02-11T02:43:54.147Z,87.12
2023-02-11T02:46:32.433Z,86.60
2023-02-11T02:48:59.287Z,86.69
2023-02-11T02:51:51.677Z,86.58
2023-02-11T02:54:36.880Z,86.56
2023-02-11T02:57:41.047Z,86.77
2023-02-11T03:00:10.413Z,86.62
2023-02-11T03:03:01.029Z,86.63
2023-02-11T03:05:49.573Z,86.52
2023-02-11T03:08:37.852Z,86.82
2023-02-11T03:11:05.104Z,86.58
2023-02-11T03:13:34.154Z,86.73
2023-02-11T03:16:13.713Z,86.51
2023-02-11T03:18:43.060Z,86.19
2023-02-11T03:21:11.028Z,86.03
2023-02-11T03:23:40.610Z,86.13
2023-02-11T03:26:29.058Z,86.48
2023-02-11T03:29:08.438Z,86.52
2023-02-11T03:32:07.437Z,86.66
2023-02-11T03:34:59.861Z,86.56
2023-02-11T03:37:40.904Z,86.54
2023-02-11T03:40:14.080Z,86.87
2023-02-11T03:42:44.951Z,87.07
2023-02-11T03:45:15.508Z,86.80
2023-02-11T03:47:45.378Z,87.19
2023-02-11T03:50:12.824Z,87.24
2023-02-11T03:52:39.346Z,87.50
2023-02-11T03:55:16.247Z,87.92
2023-02-11T03:57:42.735Z,88.16
2023-02-11T04:00:10.331Z,88.41
2023-02-11T04:02:38.759Z,88.19
2023-02-11T04:05:07.070Z,88.94
2023-02-11T04:07:33.851Z,88.52
2023-02-11T04:10:00.750Z,88.38
2023-02-11T04:12:27.162Z,88.61
2023-02-11T04:14:53.628Z,88.21
2023-02-11T04:17:20.018Z,88.46
2023-02-11T04:19:46.446Z,88.21
2023-02-11T04:22:12.874Z,88.17
2023-02-11T04:24:39.358Z,88.03
2023-02-11T04:27:05.912Z,88.22
2023-02-11T04:29:32.330Z,88.12
2023-02-11T04:31:58.813Z,88.59
2023-02-11T04:34:25.447Z,88.40
2023-02-11T04:36:51.962Z,88.05
2023-02-11T04:39:18.513Z,88.64
2023-02-11T04:41:44.922Z,88.30
2023-02-11T04:44:11.349Z,88.13
2023-02-11T04:46:37.746Z,88.90
2023-02-11T04:49:04.287Z,88.42
2023-02-11T04:51:31.559Z,88.42
2023-02-11T04:53:57.981Z,88.19
2023-02-11T04:56:24.385Z,88.36
2023-02-11T04:58:50.848Z,88.46
2023-02-11T05:01:17.435Z,88.79
2023-02-11T05:03:43.905Z,88.48
2023-02-11T05:06:11.332Z,88.82
2023-02-11T05:08:37.962Z,88.43
2023-02-11T05:11:04.555Z,88.63
2023-02-11T05:13:31.461Z,89.08
2023-02-11T05:15:57.886Z,89.08
2023-02-11T05:18:24.407Z,88.53
2023-02-11T05:20:50.872Z,89.02
2023-02-11T05:23:17.275Z,89.53
2023-02-11T05:25:43.657Z,89.42
2023-02-11T05:28:10.186Z,88.89
2023-02-11T05:30:36.651Z,89.56
2023-02-11T05:33:03.116Z,89.61
2023-02-11T05:35:29.518Z,89.40
2023-02-11T05:37:55.947Z,89.81
2023-02-11T05:40:22.375Z,89.47
2023-02-11T05:42:48.825Z,89.75
2023-02-11T05:45:15.294Z,89.50
2023-02-11T05:47:41.720Z,90.03
2023-02-11T05:50:08.208Z,89.95
2023-02-11T05:52:34.674Z,90.24
2023-02-11T05:55:01.249Z,89.80
2023-02-11T05:57:27.625Z,89.97
2023-02-11T05:59:54.073Z,89.68
2023-02-11T06:02:20.636Z,90.23
2023-02-11T06:04:47.172Z,90.12
2023-02-11T06:07:13.614Z,90.42
2023-02-11T06:09:39.981Z,90.62
2023-02-11T06:12:06.570Z,90.65
2023-02-11T06:14:34.174Z,91.08
2023-02-11T06:17:00.946Z,91.25
2023-02-11T06:19:27.413Z,90.62
2023-02-11T06:21:53.801Z,91.10
2023-02-11T06:24:38.477Z,91.03
2023-02-11T06:27:06.778Z,90.99
2023-02-11T06:29:33.265Z,91.20
2023-02-11T06:31:59.836Z,91.12
2023-02-11T06:34:26.357Z,91.25
2023-02-11T06:36:52.733Z,90.64
2023-02-11T06:39:19.099Z,91.14
2023-02-11T06:41:45.498Z,90.82
2023-02-11T06:44:11.949Z,90.94
2023-02-11T06:46:38.402Z,90.97
2023-02-11T06:49:04.997Z,91.22
2023-02-11T06:51:31.448Z,91.30
2023-02-11T06:53:57.919Z,91.21
2023-02-11T06:56:27.205Z,91.16
2023-02-11T06:58:57.944Z,91.55
2023-02-11T07:01:25.762Z,91.75
2023-02-11T07:03:52.530Z,91.89
2023-02-11T07:06:21.733Z,92.00
2023-02-11T07:08:48.716Z,91.34
2023-02-11T07:11:17.722Z,91.53
2023-02-11T07:13:44.118Z,92.02
2023-02-11T07:16:13.930Z,91.49
2023-02-11T07:18:40.509Z,91.90
2023-02-11T07:21:08.942Z,91.43
2023-02-11T07:23:36.488Z,91.65
2023-02-11T07:26:04.790Z,91.51
2023-02-11T07:28:31.375Z,91.48
2023-02-11T07:30:58.259Z,91.74
2023-02-11T07:33:24.675Z,91.72
2023-02-11T07:35:51.507Z,91.56
2023-02-11T07:38:18.106Z,91.62
2023-02-11T07:40:44.588Z,91.39
2023-02-11T07:43:11.030Z,91.40
2023-02-11T07:45:39.359Z,91.27
2023-02-11T07:48:05.886Z,91.63
2023-02-11T07:50:32.320Z,91.59
2023-02-11T07:52:58.722Z,91.49
2023-02-11T07:55:25.134Z,91.33
2023-02-11T07:57:51.645Z,91.67
2023-02-11T08:00:20.806Z,91.63
2023-02-11T08:02:47.683Z,91.44
2023-02-11T08:05:14.111Z,91.36
2023-02-11T08:07:40.585Z,91.23
2023-02-11T08:10:07.255Z,91.69
2023-02-11T08:12:33.733Z,91.56
2023-02-11T08:15:00.209Z,91.55
2023-02-11T08:17:29.590Z,91.50
2023-02-11T08:19:56.093Z,91.26
2023-02-11T08:22:22.450Z,91.00
2023-02-11T08:24:51.419Z,91.38
2023-02-11T08:27:18.730Z,91.08
2023-02-11T08:29:45.153Z,91.41
2023-02-11T08:32:11.668Z,91.53
2023-02-11T08:34:38.157Z,90.92
2023-02-11T08:37:04.545Z,91.14
2023-02-11T08:39:30.904Z,91.29
2023-02-11T08:41:57.844Z,91.27
2023-02-11T08:44:24.414Z,90.61
2023-02-11T08:46:51.000Z,90.87
2023-02-11T08:49:17.489Z,90.44
2023-02-11T08:51:44.278Z,90.52
2023-02-11T08:54:10.994Z,89.73
2023-02-11T08:56:38.647Z,90.36
2023-02-11T08:59:05.874Z,90.26
2023-02-11T09:01:32.437Z,90.16
2023-02-11T09:03:59.001Z,89.91
2023-02-11T09:06:26.058Z,89.83
2023-02-11T09:08:55.078Z,89.49
2023-02-11T09:11:25.993Z,89.52
2023-02-11T09:13:54.383Z,89.48
2023-02-11T09:16:24.731Z,89.23
2023-02-11T09:18:51.259Z,89.23
2023-02-11T09:21:18.405Z,89.14
2023-02-11T09:23:47.601Z,89.74
2023-02-11T09:26:19.678Z,89.54
2023-02-11T09:28:46.394Z,89.01
2023-02-11T09:31:15.488Z,88.93
2023-02-11T09:33:47.653Z,88.50
2023-02-11T09:36:16.621Z,88.74
2023-02-11T09:38:43.353Z,88.19
2023-02-11T09:41:28.676Z,88.46
2023-02-11T09:43:57.219Z,88.32
2023-02-11T09:46:24.664Z,88.46
2023-02-11T09:48:53.435Z,88.35
2023-02-11T09:51:34.032Z,87.80
2023-02-11T09:54:18.401Z,87.87
2023-02-11T09:56:44.849Z,88.06
2023-02-11T09:59:15.210Z,87.49
2023-02-11T10:01:50.282Z,87.43
2023-02-11T10:04:49.259Z,86.97
2023-02-11T10:07:22.693Z,86.94
2023-02-11T10:10:03.205Z,86.72
2023-02-11T10:13:06.124Z,85.80
2023-02-11T10:15:46.587Z,85.45
2023-02-11T10:18:34.453Z,84.67
2023-02-11T10:21:22.041Z,82.71
2023-02-11T10:23:51.758Z,82.95
2023-02-11T10:26:19.269Z,81.38
2023-02-11T10:28:51.093Z,81.46
2023-02-11T10:31:21.890Z,81.50
2023-02-11T10:33:57.391Z,81.11
2023-02-11T10:36:27.635Z,81.44
2023-02-11T10:38:54.006Z,81.25
2023-02-11T10:41:24.461Z,81.52
2023-02-11T10:43:51.109Z,82.02
2023-02-11T10:46:19.679Z,82.11
2023-02-11T10:48:51.552Z,82.20
2023-02-11T10:51:23.481Z,81.96
2023-02-11T10:53:51.593Z,81.61
2023-02-11T10:56:24.331Z,81.56
2023-02-11T10:59:27.562Z,80.93
2023-02-11T11:01:57.368Z,81.47
2023-02-11T11:04:29.909Z,80.58
2023-02-11T11:06:57.287Z,81.03
2023-02-11T11:09:31.198Z,80.27
2023-02-11T11:11:57.591Z,80.34
2023-02-11T11:14:28.808Z,79.78
2023-02-11T11:16:55.753Z,79.94
2023-02-11T11:19:24.328Z,79.76
2023-02-11T11:21:53.150Z,78.89
2023-02-11T11:24:29.376Z,78.76
2023-02-11T11:26:58.289Z,78.84
2023-02-11T11:29:33.887Z,78.27
2023-02-11T11:32:05.160Z,78.38
2023-02-11T11:34:35.030Z,78.35
2023-02-11T11:37:02.293Z,77.37
2023-02-11T11:39:33.738Z,77.34
2023-02-11T11:42:26.693Z,75.96
2023-02-11T11:45:00.789Z,76.59
2023-02-11T11:47:32.085Z,75.83
2023-02-11T11:50:25.809Z,75.61
2023-02-11T11:53:01.720Z,75.39
2023-02-11T11:55:44.390Z,74.88
2023-02-11T11:58:15.770Z,75.56
2023-02-11T12:00:44.435Z,75.52
2023-02-11T12:03:31.693Z,75.01
2023-02-11T12:06:24.718Z,74.87
2023-02-11T12:09:09.904Z,74.14
2023-02-11T12:12:02.033Z,73.64
2023-02-11T12:14:47.893Z,73.18
2023-02-11T12:17:35.647Z,72.99
2023-02-11T12:20:36.124Z,72.62
2023-02-11T12:23:38.788Z,71.60
2023-02-11T12:26:12.866Z,72.03
2023-02-11T12:28:58.323Z,70.42
2023-02-11T12:31:55.076Z,71.12
2023-02-11T12:34:36.479Z,71.15
2023-02-11T12:37:12.006Z,69.38
2023-02-11T12:39:47.324Z,69.52
2023-02-11T12:43:06.581Z,68.41
2023-02-11T12:45:35.877Z,68.88
2023-02-11T12:48:22.843Z,70.02
2023-02-11T12:51:04.360Z,69.79
2023-02-11T12:53:44.864Z,68.98
2023-02-11T12:56:16.301Z,69.39
2023-02-11T12:58:45.835Z,68.84
2023-02-11T13:01:26.697Z,67.77
2023-02-11T13:03:57.705Z,66.73
2023-02-11T13:06:29.444Z,66.79
2023-02-11T13:09:06.986Z,66.75
2023-02-11T13:11:38.050Z,67.20
2023-02-11T13:14:11.729Z,65.99
2023-02-11T13:16:42.300Z,66.63
2023-02-11T13:19:17.950Z,65.22
2023-02-11T13:22:16.522Z,64.70
2023-02-11T13:25:20.349Z,64.80
2023-02-11T13:28:05.402Z,65.11
2023-02-11T13:30:35.043Z,65.27
2023-02-11T13:33:01.497Z,65.55
2023-02-11T13:36:04.390Z,65.26
2023-02-11T13:38:32.050Z,65.35
2023-02-11T13:41:06.101Z,66.07
2023-02-11T13:43:34.773Z,66.21
2023-02-11T13:46:06.660Z,66.54
2023-02-11T13:48:38.210Z,66.87
2023-02-11T13:51:10.917Z,67.17
2023-02-11T13:53:53.225Z,66.21
2023-02-11T13:56:30.208Z,67.45
2023-02-11T13:58:59.049Z,67.80
2023-02-11T14:01:40.046Z,67.47
2023-02-11T14:04:42.920Z,67.31
2023-02-11T14:07:49.746Z,67.03
2023-02-11T14:10:41.082Z,66.80
2023-02-11T14:13:26.796Z,67.46
2023-02-11T14:16:20.501Z,66.32
2023-02-11T14:18:54.814Z,66.18
2023-02-11T14:21:30.454Z,66.76
2023-02-11T14:24:04.627Z,67.54
2023-02-11T14:26:41.486Z,66.83
2023-02-11T14:29:28.716Z,66.76
2023-02-11T14:32:00.772Z,67.19
2023-02-11T14:34:36.321Z,66.96
2023-02-11T14:37:05.774Z,67.45
2023-02-11T14:39:54.426Z,66.55
2023-02-11T14:42:25.374Z,66.60
2023-02-11T14:44:53.605Z,66.99
2023-02-11T14:47:24.313Z,67.40
2023-02-11T14:49:50.935Z,67.45
2023-02-11T14:52:26.996Z,66.93
2023-02-11T14:55:01.990Z,67.62
2023-02-11T14:57:29.635Z,67.83
2023-02-11T15:00:20.710Z,67.37
2023-02-11T15:02:47.444Z,67.55
2023-02-11T15:05:22.525Z,67.43
2023-02-11T15:07:54.726Z,67.71
2023-02-11T15:10:28.820Z,68.13
2023-02-11T15:12:55.736Z,68.15
2023-02-11T15:15:22.265Z,67.95
2023-02-11T15:17:48.735Z,68.06
2023-02-11T15:20:35.849Z,68.39
2023-02-11T15:23:04.862Z,68.47
2023-02-11T15:25:34.086Z,68.56
2023-02-11T15:28:00.835Z,68.68
2023-02-11T15:30:30.896Z,68.44
2023-02-11T15:33:00.167Z,68.26
2023-02-11T15:35:30.164Z,68.64
2023-02-11T15:37:57.408Z,70.48
2023-02-11T15:40:28.978Z,70.40
2023-02-11T15:43:02.675Z,70.21
2023-02-11T15:45:54.975Z,70.71
2023-02-11T15:48:43.035Z,69.87
2023-02-11T15:51:24.335Z,70.43
2023-02-11T15:54:19.046Z,70.69
2023-02-11T15:56:51.034Z,70.56
2023-02-11T15:59:20.781Z,70.95
2023-02-11T16:01:48.413Z,70.83
2023-02-11T16:04:20.607Z,70.50
2023-02-11T16:06:51.126Z,71.02
2023-02-11T16:09:35.310Z,71.21
2023-02-11T16:12:07.388Z,71.48
2023-02-11T16:14:39.295Z,71.85
2023-02-11T16:17:09.788Z,72.24
2023-02-11T16:19:37.172Z,72.29
2023-02-11T16:22:09.095Z,73.04
2023-02-11T16:24:36.760Z,73.02
2023-02-11T16:27:05.359Z,73.35
2023-02-11T16:29:35.188Z,73.60
2023-02-11T16:32:10.206Z,73.92
2023-02-11T16:34:36.688Z,74.15
2023-02-11T16:37:05.185Z,74.32
2023-02-11T16:39:31.657Z,74.12
2023-02-11T16:41:58.394Z,74.82
2023-02-11T16:44:24.826Z,75.20
2023-02-11T16:46:52.673Z,75.09
2023-02-11T16:49:40.902Z,75.74
2023-02-11T16:52:09.536Z,76.06
2023-02-11T16:54:36.056Z,76.13
2023-02-11T16:57:05.478Z,76.26
2023-02-11T16:59:31.838Z,76.02
2023-02-11T17:01:58.371Z,75.90
2023-02-11T17:04:27.550Z,76.02
2023-02-11T17:06:55.963Z,76.60
2023-02-11T17:09:28.363Z,76.07
2023-02-11T17:11:56.285Z,76.35
2023-02-11T17:14:22.832Z,76.16
2023-02-11T17:16:49.465Z,76.64
2023-02-11T17:19:20.704Z,76.65
2023-02-11T17:21:48.784Z,76.80
2023-02-11T17:24:15.584Z,76.77
2023-02-11T17:26:43.592Z,76.84
2023-02-11T17:29:12.296Z,77.39
2023-02-11T17:31:39.857Z,76.94
2023-02-11T17:34:07.000Z,77.25
2023-02-11T17:36:33.911Z,77.42
2023-02-11T17:39:00.955Z,77.94
2023-02-11T17:41:27.970Z,77.92
2023-02-11T17:43:57.879Z,77.66
2023-02-11T17:46:24.385Z,77.79
2023-02-11T17:48:52.793Z,77.83
2023-02-11T17:51:26.545Z,78.14
2023-02-11T17:53:53.503Z,78.12
2023-02-11T17:56:20.561Z,77.79
2023-02-11T17:58:47.025Z,78.76
2023-02-11T18:01:13.512Z,78.55
2023-02-11T18:03:40.050Z,78.05
2023-02-11T18:06:07.439Z,78.36
2023-02-11T18:08:34.771Z,78.65
2023-02-11T18:11:01.444Z,78.01
2023-02-11T18:13:28.684Z,78.37
2023-02-11T18:15:55.829Z,78.30
2023-02-11T18:18:22.253Z,78.28
2023-02-11T18:20:58.858Z,78.53
2023-02-11T18:23:25.892Z,78.65
2023-02-11T18:25:52.596Z,78.56
2023-02-11T18:28:19.274Z,78.33
2023-02-11T18:30:45.765Z,78.29
2023-02-11T18:33:14.277Z,78.54
2023-02-11T18:35:41.744Z,78.50
2023-02-11T18:38:09.018Z,78.46
2023-02-11T18:40:38.528Z,78.61
2023-02-11T18:43:04.966Z,78.36
2023-02-11T18:45:31.682Z,78.52
2023-02-11T18:48:01.485Z,78.56
2023-02-11T18:50:27.906Z,78.59
2023-02-11T18:52:54.338Z,78.60
2023-02-11T18:55:25.228Z,78.67
2023-02-11T18:57:52.797Z,78.27
2023-02-11T19:00:19.986Z,78.49
2023-02-11T19:02:46.536Z,78.59
2023-02-11T19:05:13.082Z,79.02
2023-02-11T19:07:39.591Z,79.04
2023-02-11T19:10:06.719Z,79.04
2023-02-11T19:12:33.225Z,78.91
2023-02-11T19:15:00.746Z,79.45
2023-02-11T19:17:27.641Z,79.32
2023-02-11T19:19:54.077Z,79.10
2023-02-11T19:22:20.612Z,79.01
2023-02-11T19:24:47.038Z,79.30
2023-02-11T19:27:13.409Z,79.42
2023-02-11T19:29:39.993Z,79.32
2023-02-11T19:32:06.886Z,79.58
2023-02-11T19:34:40.835Z,79.57
2023-02-11T19:37:10.670Z,79.54
2023-02-11T19:39:37.081Z,79.43
2023-02-11T19:42:03.999Z,79.19
2023-02-11T19:44:30.435Z,79.42
2023-02-11T19:46:56.925Z,79.66
2023-02-11T19:49:24.500Z,79.46
2023-02-11T19:51:52.617Z,79.74
2023-02-11T19:54:20.307Z,79.83
2023-02-11T19:56:47.275Z,79.68
2023-02-11T19:59:14.503Z,79.85
2023-02-11T20:01:41.115Z,79.86
2023-02-11T20:04:08.156Z,80.01
2023-02-11T20:06:35.082Z,79.68
2023-02-11T20:09:06.013Z,79.73
2023-02-11T20:11:33.185Z,80.02
2023-02-11T20:14:00.216Z,79.93
2023-02-11T20:16:44.688Z,79.91
2023-02-11T20:19:17.467Z,79.79
2023-02-11T20:21:46.696Z,79.62
2023-02-11T20:24:13.451Z,79.96
2023-02-11T20:26:42.244Z,80.33
2023-02-11T20:29:08.924Z,80.33
2023-02-11T20:31:35.824Z,79.95
2023-02-11T20:34:02.461Z,80.40
2023-02-11T20:36:31.930Z,80.17
2023-02-11T20:38:59.433Z,80.17
2023-02-11T20:41:28.461Z,80.39
2023-02-11T20:43:55.837Z,80.63
2023-02-11T20:46:25.172Z,80.61
2023-02-11T20:48:52.836Z,80.29
2023-02-11T20:51:22.354Z,80.36
2023-02-11T20:53:51.004Z,80.23
2023-02-11T20:56:20.764Z,80.42
2023-02-11T20:58:47.286Z,80.64
2023-02-11T21:01:18.532Z,80.85
2023-02-11T21:03:50.832Z,80.82
2023-02-11T21:06:18.149Z,80.51
2023-02-11T21:08:44.776Z,80.72
2023-02-11T21:11:11.711Z,80.61
2023-02-11T21:13:40.165Z,80.96
2023-02-11T21:16:07.609Z,80.93
2023-02-11T21:18:34.620Z,81.08
2023-02-11T21:21:01.120Z,80.85
2023-02-11T21:23:29.075Z,81.31
2023-02-11T21:25:56.545Z,81.28
2023-02-11T21:28:26.325Z,81.45
2023-02-11T21:30:54.110Z,81.58
2023-02-11T21:33:21.205Z,81.50
2023-02-11T21:35:48.760Z,81.89
2023-02-11T21:38:15.162Z,81.49
2023-02-11T21:40:41.876Z,81.59
2023-02-11T21:43:08.366Z,81.81
2023-02-11T21:45:34.801Z,81.88
2023-02-11T21:48:01.364Z,82.55
2023-02-11T21:50:27.814Z,81.85
2023-02-11T21:52:54.206Z,82.77
2023-02-11T21:55:20.653Z,82.19
2023-02-11T21:57:47.062Z,82.39
2023-02-11T22:00:14.049Z,82.64
2023-02-11T22:02:40.543Z,82.65
2023-02-11T22:05:06.987Z,82.80
2023-02-11T22:07:35.833Z,82.82
2023-02-11T22:10:02.807Z,82.47
2023-02-11T22:12:29.234Z,83.08
2023-02-11T22:14:55.624Z,82.79
2023-02-11T22:17:23.093Z,82.97
2023-02-11T22:19:49.722Z,83.58
2023-02-11T22:22:18.290Z,83.27
2023-02-11T22:24:47.941Z,83.53
2023-02-11T22:27:17.370Z,83.14
2023-02-11T22:29:45.254Z,83.29
2023-02-11T22:32:11.898Z,82.96
2023-02-11T22:34:38.750Z,82.82
2023-02-11T22:37:05.365Z,83.40
2023-02-11T22:39:31.852Z,83.16
2023-02-11T22:41:58.341Z,83.09
2023-02-11T22:44:24.938Z,83.01
2023-02-11T22:46:52.116Z,82.81
2023-02-11T22:49:20.322Z,83.08
2023-02-11T22:51:47.257Z,83.08
2023-02-11T22:54:16.432Z,82.92
2023-02-11T22:56:43.229Z,82.90
2023-02-11T22:59:12.987Z,83.04
2023-02-11T23:01:39.557Z,83.20
2023-02-11T23:04:07.311Z,83.44
2023-02-11T23:06:34.231Z,83.26
2023-02-11T23:09:00.766Z,83.05
2023-02-11T23:11:29.150Z,82.94
2023-02-11T23:13:55.783Z,83.49
2023-02-11T23:16:25.684Z,83.59
2023-02-11T23:18:54.058Z,83.31
2023-02-11T23:21:25.760Z,83.21
2023-02-11T23:23:57.125Z,83.33
2023-02-11T23:26:23.857Z,83.26
2023-02-11T23:28:50.637Z,83.22
2023-02-11T23:31:29.001Z,83.63
2023-02-11T23:33:55.484Z,83.28
2023-02-11T23:36:23.207Z,83.40
2023-02-11T23:38:49.809Z,83.20
2023-02-11T23:41:16.875Z,83.64
2023-02-11T23:43:43.786Z,83.43
2023-02-11T23:46:11.021Z,84.00
2023-02-11T23:48:37.806Z,83.85
2023-02-11T23:51:04.557Z,83.66
2023-02-11T23:53:30.964Z,83.54
2023-02-11T23:55:57.430Z,83.15
2023-02-11T23:58:24.026Z,84.00
